Aérodrome :
LOGIN :

S'inscrire | Disclaimer

   EN    FR    IT 

 










Légende :    VFR   VFR Marginal   IFR   IFR Intensif   IFR Très Intensif
Visi : 
Plafond : 
>= 8 km
>= 3000ft
5 à 8 km
1000 à 3000 ft
1500m à 5 km
500 à 1000 ft
800 à 1500m
200 à 500 ft
< 800m
< 200 ft
Symboles :   Orages  Brouillard  Fortes neiges  Fortes précipitations  Vent > 20 kt
SIGMETs :   Divers  Orages  Givrage  Turbulence  Onde Orograph.  Cendres Volcan.






- Altitude de l'aérodrome : 776 ft
- Code IATA : RMS


ETAR - Ramstein Air Base

DERNIER METAR :
  • 122056Z AUTO 05003KT 9999 CLR 13/08 A3025 RMK AO2 SLP243 T01260079 52005 FZRANO $

METARs EXPIRÉS :
  • 121956Z AUTO 00000KT 9999 CLR 17/06 A3025 RMK AO2 SLP242 T01700062 FZRANO $
  • 121856Z AUTO 02007KT 9999 CLR 21/05 A3024 RMK AO2 SLP238 T02110054 FZRANO $

TAF TAF ETAR
Valide du 12 à 18h jusqu'au 14 à 00h UTC


121800Z 1218/1324 04007KT 9999 FEW070 QNH3022INS
BECMG 1307/1308 07012KT 9999 SCT070 QNH3014INS
BECMG 1317/1318 VRB06KT 9999 FEW070 QNH3008INS TX25/1314Z TN06/1304Z



MET'MAP, la Météo Aéronautique d'un coup d'oeil ! - Copyright ORBIFLY Décembre 2007 - Disclaimer

ORBIFLY MET'MAP TEAM :

Programmation & Développement : Alexandra Zaïnal
Sur une idée originale de : Baudouin d'Aumeries
Assistance à la programmation : Marc-Olivier Méhu
Soutien technique & logistique : Manuel Goepfert

Contact : metmap@orbifly.com




SOURCES & CREDITS :

   NOAA